createdAt,value
2019-03-30T00:00:00.759Z,0.00
2019-03-30T00:01:54.171Z,0.00
2019-03-30T00:02:54.141Z,0.00
2019-03-30T00:04:48.420Z,0.00
2019-03-30T00:05:48.424Z,0.00
2019-03-30T00:07:41.813Z,0.00
2019-03-30T00:08:41.812Z,0.00
2019-03-30T00:10:35.244Z,0.00
2019-03-30T00:11:35.228Z,0.00
2019-03-30T00:13:28.758Z,0.00
2019-03-30T00:14:28.627Z,0.00
2019-03-30T00:16:22.051Z,0.00
2019-03-30T00:17:22.026Z,0.00
2019-03-30T00:19:15.444Z,0.00
2019-03-30T00:20:15.467Z,0.00
2019-03-30T00:22:08.825Z,0.00
2019-03-30T00:23:08.970Z,0.00
2019-03-30T00:25:02.261Z,0.00
2019-03-30T00:26:02.252Z,0.00
2019-03-30T00:27:55.655Z,0.00
2019-03-30T00:28:55.691Z,0.00
2019-03-30T00:30:49.102Z,0.00
2019-03-30T00:31:49.087Z,0.00
2019-03-30T00:33:42.501Z,0.00
2019-03-30T00:34:42.582Z,0.00
2019-03-30T00:36:35.893Z,0.00
2019-03-30T00:37:35.892Z,0.00
2019-03-30T00:39:29.293Z,0.00
2019-03-30T00:40:29.296Z,0.00
2019-03-30T00:42:22.879Z,0.00
2019-03-30T00:43:22.697Z,0.00
2019-03-30T00:45:16.973Z,0.00
2019-03-30T00:46:16.950Z,0.00
2019-03-30T00:48:10.351Z,0.00
2019-03-30T00:49:10.356Z,0.00
2019-03-30T00:51:03.759Z,0.00
2019-03-30T00:52:03.754Z,0.00
2019-03-30T00:53:57.211Z,0.00
2019-03-30T00:54:57.173Z,0.00
2019-03-30T00:56:50.599Z,0.00
2019-03-30T00:57:50.582Z,0.00
2019-03-30T00:59:43.969Z,0.00
2019-03-30T01:00:43.958Z,0.00
2019-03-30T01:02:37.388Z,0.00
2019-03-30T01:03:37.444Z,0.00
2019-03-30T01:05:30.793Z,0.00
2019-03-30T01:06:30.780Z,0.00
2019-03-30T01:08:24.185Z,0.00
2019-03-30T01:09:24.184Z,0.00
2019-03-30T01:11:17.590Z,0.00
2019-03-30T01:12:17.590Z,0.00
2019-03-30T01:14:11.060Z,0.00
2019-03-30T01:15:11.023Z,0.00
2019-03-30T01:17:04.395Z,0.00
2019-03-30T01:18:04.370Z,0.00
2019-03-30T01:20:03.001Z,0.00
2019-03-30T01:20:57.807Z,0.00
2019-03-30T01:22:51.392Z,0.00
2019-03-30T01:23:51.221Z,0.00
2019-03-30T01:25:44.602Z,0.00
2019-03-30T01:26:44.602Z,0.00
2019-03-30T01:28:38.010Z,0.00
2019-03-30T01:29:37.991Z,0.00
2019-03-30T01:31:31.472Z,0.00
2019-03-30T01:32:31.422Z,0.00
2019-03-30T01:34:24.860Z,0.00
2019-03-30T01:35:24.936Z,0.00
2019-03-30T01:37:18.259Z,0.00
2019-03-30T01:38:18.246Z,0.00
2019-03-30T01:40:11.635Z,0.00
2019-03-30T01:41:11.645Z,0.00
2019-03-30T01:43:05.053Z,0.00
2019-03-30T01:44:05.051Z,0.00
2019-03-30T01:45:58.442Z,0.00
2019-03-30T01:46:58.435Z,0.00
2019-03-30T01:48:51.848Z,0.00
2019-03-30T01:49:51.850Z,0.00
2019-03-30T01:51:45.267Z,0.00
2019-03-30T01:52:45.239Z,0.00
2019-03-30T01:54:38.677Z,0.00
2019-03-30T01:55:38.642Z,0.00
2019-03-30T01:57:32.086Z,0.00
2019-03-30T01:58:32.048Z,0.00
2019-03-30T02:00:25.464Z,0.00
2019-03-30T02:01:25.447Z,0.00
2019-03-30T02:03:18.942Z,0.00
2019-03-30T02:04:18.905Z,0.00
2019-03-30T02:06:12.279Z,0.00
2019-03-30T02:07:12.284Z,0.00
2019-03-30T02:09:05.717Z,0.00
2019-03-30T02:10:05.698Z,0.00
2019-03-30T02:11:59.125Z,0.00
2019-03-30T02:12:59.161Z,0.00
2019-03-30T02:14:54.206Z,0.00
2019-03-30T02:15:54.205Z,0.00
2019-03-30T02:17:47.612Z,0.00
2019-03-30T02:18:47.597Z,0.00
2019-03-30T02:20:41.034Z,0.00
2019-03-30T02:21:41.039Z,0.00
2019-03-30T02:23:34.426Z,0.00
2019-03-30T02:24:34.418Z,0.00
2019-03-30T02:26:27.803Z,0.00
2019-03-30T02:27:27.810Z,0.00
2019-03-30T02:29:21.330Z,0.00
2019-03-30T02:30:21.250Z,0.00
2019-03-30T02:32:14.666Z,0.00
2019-03-30T02:33:14.658Z,0.00
2019-03-30T02:35:08.062Z,0.00
2019-03-30T02:36:08.062Z,0.00
2019-03-30T02:38:01.457Z,0.00
2019-03-30T02:39:01.495Z,0.00
2019-03-30T02:40:54.916Z,0.00
2019-03-30T02:41:54.869Z,0.00
2019-03-30T02:43:48.257Z,0.00
2019-03-30T02:44:48.251Z,0.00
2019-03-30T02:46:41.698Z,0.00
2019-03-30T02:47:41.705Z,0.00
2019-03-30T02:49:35.081Z,0.00
2019-03-30T02:50:48.587Z,0.00
2019-03-30T02:52:28.477Z,0.00
2019-03-30T02:53:28.461Z,0.00
2019-03-30T02:55:21.879Z,0.00
2019-03-30T02:56:21.857Z,0.00
2019-03-30T02:58:15.306Z,0.00
2019-03-30T02:59:15.272Z,0.00
2019-03-30T03:01:08.672Z,0.00
2019-03-30T03:02:08.662Z,0.00
2019-03-30T03:04:02.935Z,0.00
2019-03-30T03:05:02.979Z,0.00
2019-03-30T03:06:56.316Z,0.00
2019-03-30T03:07:56.315Z,0.00
2019-03-30T03:09:49.742Z,0.00
2019-03-30T03:10:49.706Z,0.00
2019-03-30T03:12:43.092Z,0.00
2019-03-30T03:13:43.095Z,0.00
2019-03-30T03:15:36.505Z,0.00
2019-03-30T03:16:36.610Z,0.00
2019-03-30T03:18:29.904Z,0.00
2019-03-30T03:19:29.914Z,0.00
2019-03-30T03:21:23.362Z,0.00
2019-03-30T03:22:23.306Z,0.00
2019-03-30T03:24:16.804Z,0.00
2019-03-30T03:25:16.708Z,0.00
2019-03-30T03:27:10.964Z,0.00
2019-03-30T03:28:10.987Z,0.00
2019-03-30T03:30:04.369Z,0.00
2019-03-30T03:31:04.383Z,0.00
2019-03-30T03:32:57.760Z,0.00
2019-03-30T03:33:57.842Z,0.00
2019-03-30T03:35:51.297Z,0.00
2019-03-30T03:36:51.157Z,0.00
2019-03-30T03:38:44.535Z,0.00
2019-03-30T03:39:44.537Z,0.00
2019-03-30T03:41:38.785Z,0.00
2019-03-30T03:42:38.795Z,0.00
2019-03-30T03:44:32.170Z,0.00
2019-03-30T03:45:32.164Z,0.00
2019-03-30T03:47:25.603Z,0.00
2019-03-30T03:48:25.597Z,0.00
2019-03-30T03:50:18.983Z,0.00
2019-03-30T03:51:26.203Z,0.00
2019-03-30T03:53:12.399Z,0.00
2019-03-30T03:54:12.394Z,0.00
2019-03-30T03:56:05.806Z,0.00
2019-03-30T03:57:05.792Z,0.00
2019-03-30T03:58:59.204Z,0.00
2019-03-30T03:59:59.188Z,0.00
2019-03-30T04:01:52.672Z,0.00
2019-03-30T04:02:52.630Z,0.00
2019-03-30T04:05:09.584Z,0.00
2019-03-30T04:12:59.151Z,0.00
2019-03-30T04:13:59.127Z,0.00
2019-03-30T04:15:52.536Z,0.00
2019-03-30T04:16:52.547Z,0.00
2019-03-30T04:18:48.292Z,0.00
2019-03-30T04:19:45.944Z,0.00
2019-03-30T04:21:44.158Z,0.00
2019-03-30T04:22:39.324Z,0.00
2019-03-30T04:24:32.742Z,0.00
2019-03-30T04:25:32.791Z,0.00
2019-03-30T04:27:26.182Z,0.00
2019-03-30T04:28:26.135Z,0.00
2019-03-30T04:30:19.528Z,0.00
2019-03-30T04:31:20.008Z,0.00
2019-03-30T04:33:12.949Z,0.00
2019-03-30T04:34:12.963Z,0.00
2019-03-30T04:36:06.768Z,0.00
2019-03-30T04:37:06.335Z,0.00
2019-03-30T04:38:59.741Z,0.00
2019-03-30T04:39:59.729Z,0.00
2019-03-30T04:41:53.144Z,0.00
2019-03-30T04:42:53.153Z,0.00
2019-03-30T04:44:47.526Z,0.00
2019-03-30T04:45:47.382Z,0.00
2019-03-30T04:47:40.815Z,0.00
2019-03-30T04:48:40.787Z,0.00
2019-03-30T04:50:35.014Z,0.00
2019-03-30T04:51:35.033Z,0.00
2019-03-30T04:53:28.468Z,5.63
2019-03-30T04:54:28.440Z,5.63
2019-03-30T04:56:22.680Z,5.63
2019-03-30T04:57:22.698Z,5.63
2019-03-30T04:59:16.944Z,11.25
2019-03-30T05:00:17.026Z,11.25
2019-03-30T05:02:10.335Z,11.25
2019-03-30T05:03:10.336Z,16.88
2019-03-30T05:05:03.762Z,16.88
2019-03-30T05:06:03.742Z,22.50
2019-03-30T05:07:57.149Z,22.50
2019-03-30T05:08:57.170Z,28.13
2019-03-30T05:10:50.529Z,28.13
2019-03-30T05:11:50.538Z,33.75
2019-03-30T05:13:43.945Z,39.38
2019-03-30T05:14:43.935Z,39.38
2019-03-30T05:16:37.327Z,45.00
2019-03-30T05:17:47.013Z,50.63
2019-03-30T05:19:30.839Z,56.25
2019-03-30T05:20:30.735Z,61.88
2019-03-30T05:22:25.000Z,67.50
2019-03-30T05:23:24.981Z,67.50
2019-03-30T05:25:18.474Z,73.13
2019-03-30T05:26:18.379Z,73.13
2019-03-30T05:28:11.790Z,78.75
2019-03-30T05:30:46.322Z,90.00
2019-03-30T05:32:18.555Z,101.25
2019-03-30T05:33:18.572Z,101.25
2019-03-30T05:37:47.357Z,129.38
2019-03-30T06:04:24.171Z,590.63
2019-03-30T06:05:24.166Z,579.38
2019-03-30T06:07:17.548Z,568.13
2019-03-30T06:08:17.682Z,568.13
2019-03-30T06:10:11.034Z,579.38
2019-03-30T06:11:10.983Z,596.25
2019-03-30T06:13:04.404Z,607.50
2019-03-30T06:14:04.437Z,630.00
2019-03-30T06:15:57.822Z,590.63
2019-03-30T06:16:57.812Z,579.38
2019-03-30T06:18:51.243Z,545.63
2019-03-30T06:19:51.235Z,450.00
2019-03-30T06:21:44.641Z,360.00
2019-03-30T06:22:44.728Z,365.63
2019-03-30T06:24:38.033Z,393.75
2019-03-30T06:25:38.047Z,472.50
2019-03-30T06:27:31.590Z,568.13
2019-03-30T06:28:31.460Z,590.63
2019-03-30T06:30:24.896Z,658.13
2019-03-30T06:31:24.873Z,663.75
2019-03-30T06:33:19.166Z,697.50
2019-03-30T06:34:19.147Z,703.13
2019-03-30T06:36:13.416Z,708.75
2019-03-30T06:37:13.405Z,708.75
2019-03-30T06:39:06.796Z,675.00
2019-03-30T06:40:06.814Z,635.63
2019-03-30T06:42:00.241Z,596.25
2019-03-30T06:43:00.281Z,568.13
2019-03-30T06:44:53.646Z,753.75
2019-03-30T06:45:53.658Z,815.63
2019-03-30T06:47:47.130Z,714.38
2019-03-30T06:48:47.259Z,680.63
2019-03-30T06:50:40.597Z,804.38
2019-03-30T06:51:40.499Z,1029.38
2019-03-30T06:53:33.966Z,1063.13
2019-03-30T06:54:33.947Z,1051.88
2019-03-30T06:56:27.373Z,1327.50
2019-03-30T06:57:27.369Z,1423.13
2019-03-30T06:59:20.794Z,1271.25
2019-03-30T07:00:20.774Z,1102.50
2019-03-30T07:02:14.199Z,916.88
2019-03-30T07:03:14.189Z,990.00
2019-03-30T07:05:07.622Z,1293.75
2019-03-30T07:06:07.617Z,1338.75
2019-03-30T07:08:01.098Z,1355.63
2019-03-30T07:09:01.029Z,1355.63
2019-03-30T07:10:54.437Z,1428.75
2019-03-30T07:11:54.450Z,1468.13
2019-03-30T07:13:47.862Z,1507.50
2019-03-30T07:14:47.867Z,1591.88
2019-03-30T07:16:41.434Z,1614.38
2019-03-30T07:17:41.326Z,1648.13
2019-03-30T07:19:34.711Z,1693.13
2019-03-30T07:20:34.724Z,1693.13
2019-03-30T07:22:28.169Z,1659.38
2019-03-30T07:23:28.148Z,1597.50
2019-03-30T07:25:21.574Z,1591.88
2019-03-30T07:26:21.571Z,1569.38
2019-03-30T07:28:15.004Z,1575.00
2019-03-30T07:29:14.994Z,1530.00
2019-03-30T07:31:09.276Z,1603.13
2019-03-30T07:32:09.322Z,1563.75
2019-03-30T07:34:02.715Z,1620.00
2019-03-30T07:35:02.920Z,1586.25
2019-03-30T07:36:56.112Z,1693.13
2019-03-30T07:37:56.182Z,1681.88
2019-03-30T07:39:49.670Z,1760.63
2019-03-30T07:40:49.553Z,1800.00
2019-03-30T07:42:42.980Z,1800.00
2019-03-30T07:43:42.982Z,1845.00
2019-03-30T07:45:36.410Z,1850.63
2019-03-30T07:46:36.420Z,1946.25
2019-03-30T07:48:29.847Z,2025.00
2019-03-30T07:49:29.853Z,2070.00
2019-03-30T07:51:23.272Z,2013.75
2019-03-30T07:52:23.281Z,2041.88
2019-03-30T07:54:16.732Z,2025.00
2019-03-30T07:55:16.760Z,2210.63
2019-03-30T07:57:16.928Z,2255.63
2019-03-30T07:58:10.312Z,2390.63
2019-03-30T08:00:03.578Z,2458.13
2019-03-30T08:01:03.586Z,2441.25
2019-03-30T08:02:56.991Z,2368.13
2019-03-30T08:03:57.099Z,2396.25
2019-03-30T08:05:50.451Z,2435.63
2019-03-30T08:06:50.458Z,2373.75
2019-03-30T08:08:44.810Z,2210.63
2019-03-30T08:09:44.734Z,2160.00
2019-03-30T08:11:39.022Z,2154.38
2019-03-30T08:12:39.045Z,2272.50
2019-03-30T08:14:32.506Z,2255.63
2019-03-30T08:15:32.496Z,2216.25
2019-03-30T08:17:25.923Z,2458.13
2019-03-30T08:18:26.006Z,2458.13
2019-03-30T08:20:19.385Z,2778.75
2019-03-30T08:21:19.395Z,2919.38
2019-03-30T08:23:12.813Z,2660.63
2019-03-30T08:24:12.833Z,2688.75
2019-03-30T08:26:06.262Z,2739.38
2019-03-30T08:27:06.274Z,2806.88
2019-03-30T08:28:59.676Z,2778.75
2019-03-30T08:29:59.709Z,2857.50
2019-03-30T08:31:53.135Z,2880.00
2019-03-30T08:32:53.213Z,2919.38
2019-03-30T08:34:46.605Z,2784.38
2019-03-30T08:35:46.616Z,2767.50
2019-03-30T08:37:40.022Z,3189.38
2019-03-30T08:38:40.041Z,3256.88
2019-03-30T08:40:33.508Z,1040.63
2019-03-30T08:41:33.531Z,3358.13
2019-03-30T08:43:27.016Z,3436.88
2019-03-30T08:44:26.941Z,3526.88
2019-03-30T08:46:20.381Z,3701.25
2019-03-30T08:47:20.397Z,3723.75
2019-03-30T08:49:14.693Z,3813.75
2019-03-30T08:50:14.701Z,3836.25
2019-03-30T08:52:08.157Z,3791.25
2019-03-30T08:53:08.155Z,3813.75
2019-03-30T08:55:01.603Z,3622.50
2019-03-30T08:56:01.639Z,3892.50
2019-03-30T08:57:55.107Z,3785.63
2019-03-30T08:58:55.090Z,3768.75
2019-03-30T09:00:49.499Z,4027.50
2019-03-30T09:01:49.375Z,3858.75
2019-03-30T09:03:42.797Z,3965.63
2019-03-30T09:04:42.830Z,3768.75
2019-03-30T09:06:36.282Z,3971.25
2019-03-30T09:07:36.282Z,3898.13
2019-03-30T09:09:29.717Z,4100.63
2019-03-30T09:10:29.761Z,4106.25
2019-03-30T09:12:23.191Z,4078.13
2019-03-30T09:13:23.200Z,4263.75
2019-03-30T09:15:16.648Z,4235.63
2019-03-30T09:16:16.651Z,4095.00
2019-03-30T09:18:10.133Z,4314.38
2019-03-30T09:19:10.118Z,4072.50
2019-03-30T09:21:03.567Z,4106.25
2019-03-30T09:22:03.571Z,4269.38
2019-03-30T09:24:09.007Z,4320.00
2019-03-30T09:24:57.040Z,4539.38
2019-03-30T09:26:50.493Z,4213.13
2019-03-30T09:27:50.490Z,4348.13
2019-03-30T09:29:43.919Z,4674.38
2019-03-30T09:30:43.949Z,4719.38
2019-03-30T09:32:37.449Z,4477.50
2019-03-30T09:33:37.434Z,4286.25
2019-03-30T09:35:30.879Z,3999.38
2019-03-30T09:36:30.915Z,4005.00
2019-03-30T09:38:24.312Z,4179.38
2019-03-30T09:39:24.335Z,4263.75
2019-03-30T09:41:17.790Z,4168.13
2019-03-30T09:42:17.809Z,4213.13
2019-03-30T09:44:11.380Z,3802.50
2019-03-30T09:45:11.424Z,3780.00
2019-03-30T09:47:04.880Z,1856.25
2019-03-30T09:48:04.871Z,1400.63
2019-03-30T09:49:58.331Z,1333.13
2019-03-30T09:50:58.349Z,1310.63
2019-03-30T09:52:51.785Z,1327.50
2019-03-30T09:53:51.780Z,1293.75
2019-03-30T09:55:45.229Z,1293.75
2019-03-30T09:56:45.245Z,1293.75
2019-03-30T09:58:38.708Z,1310.63
2019-03-30T09:59:38.713Z,1321.88
2019-03-30T10:01:32.134Z,1406.25
2019-03-30T10:02:32.158Z,2160.00
2019-03-30T10:04:26.457Z,2019.38
2019-03-30T10:05:26.466Z,1372.50
2019-03-30T10:07:19.919Z,1344.38
2019-03-30T10:08:19.914Z,1372.50
2019-03-30T10:10:13.380Z,1355.63
2019-03-30T10:11:13.368Z,1355.63
2019-03-30T10:13:06.828Z,1361.25
2019-03-30T10:14:06.832Z,1372.50
2019-03-30T10:16:01.096Z,1366.88
2019-03-30T10:17:01.133Z,1389.38
2019-03-30T10:18:54.571Z,1395.00
2019-03-30T10:20:04.085Z,1423.13
2019-03-30T10:21:48.881Z,1445.63
2019-03-30T10:22:48.888Z,1468.13
2019-03-30T10:24:42.369Z,1473.75
2019-03-30T10:25:42.348Z,1485.00
2019-03-30T10:27:35.809Z,1530.00
2019-03-30T10:28:35.797Z,1558.13
2019-03-30T10:30:29.250Z,1760.63
2019-03-30T10:31:29.260Z,3622.50
2019-03-30T10:33:22.708Z,4601.25
2019-03-30T10:34:22.695Z,4916.25
2019-03-30T10:36:16.143Z,4387.50
2019-03-30T10:37:16.146Z,4516.88
2019-03-30T10:39:09.666Z,4426.88
2019-03-30T10:40:09.784Z,5079.38
2019-03-30T10:42:03.096Z,4972.50
2019-03-30T10:43:03.140Z,4320.00
2019-03-30T10:44:57.419Z,4708.13
2019-03-30T10:45:57.429Z,4263.75
2019-03-30T10:47:50.839Z,4522.50
2019-03-30T10:48:50.882Z,4348.13
2019-03-30T10:50:44.316Z,5040.00
2019-03-30T10:51:44.324Z,5236.88
2019-03-30T10:53:37.779Z,5118.75
2019-03-30T10:54:51.716Z,3847.50
2019-03-30T10:56:31.211Z,3549.38
2019-03-30T10:57:31.265Z,5698.13
2019-03-30T10:59:24.713Z,5698.13
2019-03-30T11:00:24.727Z,5928.75
2019-03-30T11:02:19.158Z,5782.50
2019-03-30T11:03:19.037Z,5265.00
2019-03-30T11:05:12.482Z,4623.75
2019-03-30T11:06:12.522Z,3976.88
2019-03-30T11:08:05.966Z,5332.50
2019-03-30T11:09:05.960Z,5838.75
2019-03-30T11:10:59.415Z,5664.38
2019-03-30T11:11:59.428Z,5501.25
2019-03-30T11:13:52.902Z,5456.25
2019-03-30T11:14:52.994Z,4983.75
2019-03-30T11:16:46.365Z,4393.13
2019-03-30T11:17:46.369Z,4438.13
2019-03-30T11:19:39.829Z,3976.88
2019-03-30T11:20:39.822Z,4173.75
2019-03-30T11:22:33.264Z,5146.88
2019-03-30T11:23:33.291Z,5343.75
2019-03-30T11:25:26.751Z,5040.00
2019-03-30T11:26:26.830Z,4522.50
2019-03-30T11:28:20.184Z,4134.38
2019-03-30T11:29:20.213Z,3813.75
2019-03-30T11:31:13.668Z,3802.50
2019-03-30T11:32:13.740Z,3622.50
2019-03-30T11:34:07.330Z,3020.63
2019-03-30T11:37:00.932Z,3605.63
2019-03-30T11:48:37.950Z,5816.25
2019-03-30T11:49:37.689Z,5692.50
2019-03-30T11:51:31.156Z,5478.75
2019-03-30T11:52:31.163Z,5428.13
2019-03-30T11:54:24.586Z,5703.75
2019-03-30T11:55:24.645Z,5366.25
2019-03-30T11:57:18.079Z,5000.63
2019-03-30T11:58:18.090Z,5197.50
2019-03-30T12:00:11.544Z,5450.63
2019-03-30T12:01:11.646Z,5675.63
2019-03-30T12:03:05.032Z,5720.63
2019-03-30T12:04:05.063Z,5495.63
2019-03-30T12:05:58.508Z,5377.50
2019-03-30T12:06:58.510Z,5574.38
2019-03-30T12:08:51.939Z,6030.00
2019-03-30T12:09:52.054Z,6046.88
2019-03-30T12:11:45.451Z,6035.63
2019-03-30T12:12:45.462Z,6069.38
2019-03-30T12:14:38.898Z,5641.88
2019-03-30T12:15:38.936Z,5625.00
2019-03-30T12:17:33.235Z,5748.75
2019-03-30T12:18:33.271Z,5771.25
2019-03-30T12:20:26.712Z,5788.13
2019-03-30T12:21:26.752Z,5574.38
2019-03-30T12:23:20.177Z,4882.50
2019-03-30T12:24:20.194Z,4848.75
2019-03-30T12:26:13.724Z,4848.75
2019-03-30T12:27:13.691Z,4910.63
2019-03-30T12:29:07.300Z,4854.38
2019-03-30T12:30:07.143Z,5186.25
2019-03-30T12:32:00.589Z,5158.13
2019-03-30T12:33:00.626Z,5101.88
2019-03-30T12:34:54.104Z,5124.38
2019-03-30T12:35:54.088Z,5484.38
2019-03-30T12:37:47.549Z,5698.13
2019-03-30T12:38:47.570Z,5540.63
2019-03-30T12:40:41.157Z,5321.25
2019-03-30T12:41:41.189Z,5653.13
2019-03-30T12:43:34.635Z,5878.13
2019-03-30T12:44:34.652Z,5535.00
2019-03-30T12:46:28.104Z,5540.63
2019-03-30T12:47:28.123Z,5861.25
2019-03-30T12:49:21.597Z,5985.00
2019-03-30T12:50:21.597Z,5782.50
2019-03-30T12:52:15.155Z,5293.13
2019-03-30T12:53:15.095Z,5175.00
2019-03-30T12:55:08.671Z,4826.25
2019-03-30T12:56:09.083Z,4590.00
2019-03-30T12:58:02.170Z,4815.00
2019-03-30T12:59:02.155Z,4629.38
2019-03-30T13:00:55.604Z,5113.13
2019-03-30T13:01:55.635Z,5096.25
2019-03-30T13:03:49.169Z,5062.50
2019-03-30T13:04:49.169Z,4680.00
2019-03-30T13:06:42.615Z,4950.00
2019-03-30T13:07:42.651Z,4702.50
2019-03-30T13:09:36.105Z,4938.75
2019-03-30T13:10:36.134Z,5191.88
2019-03-30T13:12:29.641Z,4494.38
2019-03-30T13:13:29.657Z,4365.00
2019-03-30T13:15:23.149Z,4477.50
2019-03-30T13:16:26.252Z,4809.38
2019-03-30T13:18:16.606Z,5343.75
2019-03-30T13:19:16.612Z,5360.63
2019-03-30T13:21:10.090Z,5287.50
2019-03-30T13:22:10.103Z,5281.88
2019-03-30T13:24:03.569Z,4843.13
2019-03-30T13:25:03.571Z,4978.13
2019-03-30T13:26:57.024Z,5158.13
2019-03-30T13:27:57.058Z,5310.00
2019-03-30T13:29:50.525Z,5051.25
2019-03-30T13:30:50.528Z,4545.00
2019-03-30T13:32:43.971Z,4584.38
2019-03-30T13:33:44.027Z,4899.38
2019-03-30T13:35:37.594Z,5225.63
2019-03-30T13:36:37.491Z,5163.75
2019-03-30T13:38:30.981Z,4803.75
2019-03-30T13:39:30.960Z,4618.13
2019-03-30T13:41:24.409Z,4376.25
2019-03-30T13:42:24.471Z,4601.25
2019-03-30T13:44:17.940Z,4770.00
2019-03-30T13:45:17.936Z,5028.75
2019-03-30T13:47:11.371Z,5090.63
2019-03-30T13:48:11.410Z,5023.13
2019-03-30T13:50:04.915Z,5073.75
2019-03-30T13:51:05.000Z,4809.38
2019-03-30T13:52:58.914Z,4860.00
2019-03-30T13:53:58.372Z,4702.50
2019-03-30T13:55:51.803Z,4387.50
2019-03-30T13:56:51.865Z,4612.50
2019-03-30T13:58:45.251Z,4393.13
2019-03-30T13:59:45.291Z,4280.63
2019-03-30T14:01:38.842Z,3960.00
2019-03-30T14:02:38.761Z,4123.13
2019-03-30T14:04:32.242Z,4314.38
2019-03-30T14:05:32.223Z,4387.50
2019-03-30T14:07:25.670Z,4353.75
2019-03-30T14:08:25.703Z,4100.63
2019-03-30T14:10:19.144Z,3864.38
2019-03-30T14:11:19.157Z,4308.75
2019-03-30T14:13:12.593Z,4291.88
2019-03-30T14:14:12.620Z,4162.50
2019-03-30T14:16:06.077Z,4365.00
2019-03-30T14:17:06.124Z,4156.88
2019-03-30T14:19:20.561Z,4078.13
2019-03-30T14:20:52.992Z,4235.63
2019-03-30T14:21:52.990Z,4258.13
2019-03-30T14:23:46.448Z,4275.00
2019-03-30T14:24:46.465Z,4089.38
2019-03-30T14:26:39.946Z,3926.25
2019-03-30T14:27:39.950Z,3988.13
2019-03-30T14:29:33.384Z,4111.88
2019-03-30T14:30:33.415Z,4044.38
2019-03-30T14:32:27.449Z,4016.25
2019-03-30T14:33:26.896Z,3993.75
2019-03-30T14:35:20.329Z,3898.13
2019-03-30T14:36:20.370Z,3909.38
2019-03-30T14:38:13.846Z,3841.88
2019-03-30T14:39:13.833Z,3841.88
2019-03-30T14:41:07.304Z,3735.00
2019-03-30T14:42:07.312Z,3836.25
2019-03-30T14:44:00.778Z,3723.75
2019-03-30T14:45:00.790Z,3735.00
2019-03-30T14:46:54.225Z,3577.50
2019-03-30T14:47:57.643Z,3481.88
2019-03-30T14:49:47.680Z,3532.50
2019-03-30T14:50:47.710Z,3583.13
2019-03-30T14:52:41.193Z,3369.38
2019-03-30T14:53:41.180Z,3251.25
2019-03-30T14:55:34.604Z,3386.25
2019-03-30T14:56:44.994Z,3431.25
2019-03-30T14:58:28.098Z,3526.88
2019-03-30T14:59:28.106Z,3380.63
2019-03-30T15:01:21.548Z,3436.88
2019-03-30T15:02:21.563Z,3380.63
2019-03-30T15:04:15.024Z,3358.13
2019-03-30T15:05:15.067Z,3228.75
2019-03-30T15:07:08.483Z,3093.75
2019-03-30T15:08:08.506Z,3088.13
2019-03-30T15:10:01.965Z,3155.63
2019-03-30T15:11:01.984Z,3060.00
2019-03-30T15:12:55.507Z,3144.38
2019-03-30T15:13:55.432Z,3048.75
2019-03-30T15:15:48.884Z,2846.25
2019-03-30T15:16:48.916Z,2801.25
2019-03-30T15:18:43.190Z,2925.00
2019-03-30T15:19:43.208Z,2840.63
2019-03-30T15:21:37.494Z,2688.75
2019-03-30T15:22:37.649Z,2666.25
2019-03-30T15:24:30.971Z,2559.38
2019-03-30T15:25:30.988Z,2604.38
2019-03-30T15:27:24.408Z,2559.38
2019-03-30T15:28:24.435Z,2497.50
2019-03-30T15:30:17.887Z,2435.63
2019-03-30T15:31:17.902Z,2362.50
2019-03-30T15:33:11.359Z,2424.38
2019-03-30T15:34:11.364Z,2323.13
2019-03-30T15:36:05.652Z,2272.50
2019-03-30T15:37:05.658Z,2210.63
2019-03-30T15:38:59.147Z,1968.75
2019-03-30T15:39:59.149Z,1327.50
2019-03-30T15:41:52.556Z,663.75
2019-03-30T15:42:52.596Z,646.88
2019-03-30T15:44:46.152Z,624.38
2019-03-30T15:45:46.115Z,613.13
2019-03-30T15:47:39.580Z,596.25
2019-03-30T15:48:39.571Z,585.00
2019-03-30T15:50:33.015Z,562.50
2019-03-30T15:51:33.034Z,556.88
2019-03-30T15:53:26.482Z,540.00
2019-03-30T15:54:26.481Z,534.38
2019-03-30T15:56:19.917Z,517.50
2019-03-30T15:57:19.940Z,511.88
2019-03-30T15:59:13.434Z,495.00
2019-03-30T16:00:13.397Z,483.75
2019-03-30T16:02:06.832Z,466.88
2019-03-30T16:03:06.845Z,461.25
2019-03-30T16:05:00.409Z,450.00
2019-03-30T16:06:00.298Z,438.75
2019-03-30T16:07:53.722Z,427.50
2019-03-30T16:08:53.752Z,421.88
2019-03-30T16:10:47.185Z,410.63
2019-03-30T16:11:47.194Z,405.00
2019-03-30T16:13:40.629Z,399.38
2019-03-30T16:14:40.661Z,393.75
2019-03-30T16:16:34.099Z,382.50
2019-03-30T16:17:34.086Z,382.50
2019-03-30T16:19:27.532Z,371.25
2019-03-30T16:20:27.540Z,365.63
2019-03-30T16:22:20.999Z,360.00
2019-03-30T16:23:20.986Z,354.38
2019-03-30T16:25:14.429Z,348.75
2019-03-30T16:26:14.424Z,337.50
2019-03-30T16:28:07.845Z,331.88
2019-03-30T16:29:07.855Z,326.25
2019-03-30T16:31:01.274Z,320.63
2019-03-30T16:32:01.325Z,315.00
2019-03-30T16:33:55.740Z,309.38
2019-03-30T16:34:55.570Z,303.75
2019-03-30T16:36:49.012Z,292.50
2019-03-30T16:37:49.025Z,292.50
2019-03-30T16:39:42.480Z,281.25
2019-03-30T16:40:42.472Z,281.25
2019-03-30T16:42:36.348Z,270.00
2019-03-30T16:43:35.898Z,264.38
2019-03-30T16:45:30.200Z,258.75
2019-03-30T16:46:30.178Z,253.13
2019-03-30T16:48:24.509Z,247.50
2019-03-30T16:49:24.502Z,241.88
2019-03-30T16:51:18.017Z,236.25
2019-03-30T16:52:17.964Z,230.63
2019-03-30T16:54:11.358Z,225.00
2019-03-30T16:55:11.385Z,219.38
2019-03-30T16:57:04.814Z,208.13
2019-03-30T16:58:04.808Z,208.13
2019-03-30T16:59:58.212Z,196.88
2019-03-30T17:00:58.258Z,191.25
2019-03-30T17:02:51.673Z,185.63
2019-03-30T17:03:51.680Z,180.00
2019-03-30T17:05:45.082Z,168.75
2019-03-30T17:06:45.091Z,168.75
2019-03-30T17:08:38.529Z,157.50
2019-03-30T17:09:38.526Z,151.88
2019-03-30T17:11:31.940Z,146.25
2019-03-30T17:12:31.954Z,140.63
2019-03-30T17:14:25.353Z,129.38
2019-03-30T17:15:25.407Z,123.75
2019-03-30T17:17:18.855Z,118.13
2019-03-30T17:18:18.810Z,112.50
2019-03-30T17:20:12.209Z,106.88
2019-03-30T17:21:12.225Z,101.25
2019-03-30T17:23:05.702Z,95.63
2019-03-30T17:24:05.661Z,90.00
2019-03-30T17:25:59.059Z,78.75
2019-03-30T17:26:59.074Z,78.75
2019-03-30T17:28:52.533Z,67.50
2019-03-30T17:29:52.517Z,67.50
2019-03-30T17:31:45.949Z,61.88
2019-03-30T17:32:46.006Z,56.25
2019-03-30T17:34:39.363Z,50.63
2019-03-30T17:35:39.367Z,45.00
2019-03-30T17:37:32.874Z,39.38
2019-03-30T17:44:31.227Z,22.50
2019-03-30T17:45:31.220Z,22.50
2019-03-30T17:47:24.655Z,16.88
2019-03-30T17:48:24.636Z,16.88
2019-03-30T17:50:18.044Z,11.25
2019-03-30T17:51:18.072Z,11.25
2019-03-30T17:53:11.528Z,5.63
2019-03-30T17:54:11.486Z,5.63
2019-03-30T17:56:04.900Z,5.63
2019-03-30T17:57:04.910Z,5.63
2019-03-30T17:58:58.351Z,0.00
2019-03-30T17:59:58.358Z,0.00
2019-03-30T18:01:51.783Z,0.00
2019-03-30T18:02:51.779Z,0.00
2019-03-30T18:04:46.054Z,0.00
2019-03-30T18:05:46.041Z,0.00
2019-03-30T18:07:39.470Z,0.00
2019-03-30T18:08:39.482Z,0.00
2019-03-30T18:10:32.903Z,0.00
2019-03-30T18:11:32.918Z,0.00
2019-03-30T18:13:26.357Z,0.00
2019-03-30T18:14:26.359Z,0.00
2019-03-30T18:16:22.437Z,0.00
2019-03-30T18:17:20.625Z,0.00
2019-03-30T18:19:14.052Z,0.00
2019-03-30T18:20:14.059Z,0.00
2019-03-30T18:22:07.444Z,0.00
2019-03-30T18:23:07.495Z,0.00
2019-03-30T18:25:00.933Z,0.00
2019-03-30T18:26:00.881Z,0.00
2019-03-30T18:27:54.281Z,0.00
2019-03-30T18:28:54.305Z,0.00
2019-03-30T18:30:48.573Z,0.00
2019-03-30T18:31:48.569Z,0.00
2019-03-30T18:33:42.031Z,0.00
2019-03-30T18:34:41.985Z,0.00
2019-03-30T18:36:35.412Z,0.00
2019-03-30T18:37:35.441Z,0.00
2019-03-30T18:39:28.822Z,0.00
2019-03-30T18:40:28.817Z,0.00
2019-03-30T18:42:22.239Z,0.00
2019-03-30T18:43:22.252Z,0.00
2019-03-30T18:45:15.685Z,0.00
2019-03-30T18:46:15.674Z,0.00
2019-03-30T18:48:09.070Z,0.00
2019-03-30T18:49:09.144Z,0.00
2019-03-30T18:51:02.506Z,0.00
2019-03-30T18:52:02.561Z,0.00
2019-03-30T18:53:56.770Z,0.00
2019-03-30T18:54:56.785Z,0.00
2019-03-30T18:56:50.205Z,0.00
2019-03-30T18:57:50.199Z,0.00
2019-03-30T18:59:43.635Z,0.00
2019-03-30T19:00:43.624Z,0.00
2019-03-30T19:02:37.096Z,0.00
2019-03-30T19:03:37.031Z,0.00